National Weather Service Raw Text Product

Displaying AFOS PIL: TAFMCW Received: 2017-10-13 11:38 UTC


696 
FTUS43 KDMX 131138
TAFMCW
TAF
KMCW 131138Z 1312/1412 29004KT P6SM SCT009 BKN013
     FM131300 34005KT P6SM BKN025
     FM131500 01007KT P6SM SCT025 BKN035
     FM132000 02008KT P6SM VCSH OVC040
     FM132300 04007KT P6SM BKN060=